Private Wetterstation Wechselburg
Wetterdaten: Dienstag, 21.06.2016
Datum Zeit Temp. +2m Bodentemp. Temp.+5cm Temp. Wind Windchill X Diff Temp. Feuchte +2m Feuchte +5cm Sonnenschein Luftdruck Regen Wind Richtung Richtung Sonnenschein Taupunkt Windchill Windben
21.06.2016 00:00 14,9 C 23,1 C 15,6 C 15,0 C 15,0 C 0,1 C 80 % 84 % 0 % 1016,3 hPa 0,0 l/m 0,0 km/h (0 Bft) W 270 0 min 11,5 C 15,0 C 0,0 km/h (0 Bft)
21.06.2016 00:05 14,8 C 23,1 C 15,5 C 15,0 C 15,0 C 0,2 C 80 % 85 % 0 % 1016,1 hPa 0,0 l/m 0,0 km/h (0 Bft) W 270 0 min 11,4 C 15,0 C 0,0 km/h (0 Bft)
21.06.2016 00:10 14,9 C 23,1 C 15,5 C 14,9 C 14,9 C 0,0 C 80 % 85 % 0 % 1016,1 hPa 0,0 l/m 0,0 km/h (0 Bft) W-SW 247 0 min 11,5 C 14,9 C 0,0 km/h (0 Bft)
21.06.2016 00:15 14,8 C 23,1 C 15,5 C 14,9 C 14,9 C 0,1 C 80 % 85 % 0 % 1016,1 hPa 0,0 l/m 0,0 km/h (0 Bft) W-SW 247 0 min 11,4 C 14,9 C 0,0 km/h (0 Bft)
21.06.2016 00:20 14,7 C 23,1 C 15,4 C 15,0 C 15,0 C 0,3 C 80 % 85 % 0 % 1016,1 hPa 0,0 l/m 0,0 km/h (0 Bft) W-SW 247 0 min 11,3 C 15,0 C 0,0 km/h (0 Bft)
21.06.2016 00:25 14,7 C 23,0 C 15,5 C 15,0 C 15,0 C 0,3 C 80 % 85 % 0 % 1015,9 hPa 0,0 l/m 0,0 km/h (0 Bft) W-SW 247 0 min 11,3 C 15,0 C 0,0 km/h (0 Bft)
21.06.2016 00:30 14,5 C 23,0 C 15,4 C 15,0 C 15,0 C 0,5 C 80 % 85 % 0 % 1015,9 hPa 0,0 l/m 0,0 km/h (0 Bft) W 270 0 min 11,1 C 15,0 C 0,0 km/h (0 Bft)
21.06.2016 00:40 14,4 C 23,0 C 15,3 C 15,0 C 15,0 C 0,6 C 80 % 85 % 0 % 1015,9 hPa 0,0 l/m 0,0 km/h (0 Bft) W 270 0 min 11,0 C 15,0 C 0,0 km/h (0 Bft)
21.06.2016 00:48 14,5 C 23,0 C 15,4 C 14,9 C 14,9 C 0,4 C 81 % 85 % 0 % 1016,0 hPa 0,0 l/m 0,0 km/h (0 Bft) N 0 0 min 11,3 C 14,9 C 0,0 km/h (0 Bft)
21.06.2016 00:59 14,3 C 23,1 C 15,2 C 14,8 C 14,8 C 0,5 C 81 % 86 % 0 % 1016,0 hPa 0,0 l/m 0,0 km/h (0 Bft) W 270 0 min 11,1 C 14,8 C 0,0 km/h (0 Bft)
21.06.2016 01:02 14,3 C 23,1 C 15,2 C 14,7 C 14,7 C 0,4 C 81 % 86 % 0 % 1016,0 hPa 0,0 l/m 0,0 km/h (0 Bft) W 270 0 min 11,1 C 14,7 C 0,0 km/h (0 Bft)
21.06.2016 01:03 14,3 C 23,1 C 15,2 C 14,7 C 14,7 C 0,4 C 81 % 86 % 0 % 1016,0 hPa 0,0 l/m 0,0 km/h (0 Bft) W 270 0 min 11,1 C 14,7 C 0,0 km/h (0 Bft)
21.06.2016 01:04 14,3 C 23,1 C 15,2 C 14,7 C 14,7 C 0,4 C 81 % 86 % 0 % 1016,0 hPa 0,0 l/m 0,0 km/h (0 Bft) W 270 0 min 11,1 C 14,7 C 0,0 km/h (0 Bft)
21.06.2016 01:05 14,3 C 23,0 C 15,2 C 14,7 C 14,7 C 0,4 C 81 % 86 % 0 % 1016,0 hPa 0,0 l/m 0,0 km/h (0 Bft) W 270 0 min 11,1 C 14,7 C 0,0 km/h (0 Bft)
21.06.2016 01:06 14,3 C 23,0 C 15,2 C 14,7 C 14,7 C 0,4 C 81 % 86 % 0 % 1016,0 hPa 0,0 l/m 0,0 km/h (0 Bft) W 270 0 min 11,1 C 14,7 C 0,0 km/h (0 Bft)
21.06.2016 01:09 14,3 C 23,0 C 15,2 C 14,7 C 14,7 C 0,4 C 81 % 86 % 0 % 1016,0 hPa 0,0 l/m 0,0 km/h (0 Bft) W 270 0 min 11,1 C 14,7 C 0,0 km/h (0 Bft)
21.06.2016 01:15 14,1 C 23,0 C 15,3 C 14,8 C 14,8 C 0,7 C 81 % 86 % 0 % 1016,0 hPa 0,0 l/m 0,0 km/h (0 Bft) W 270 0 min 10,9 C 14,8 C 0,0 km/h (0 Bft)
21.06.2016 01:20 14,1 C 23,0 C 15,2 C 14,9 C 14,9 C 0,8 C 81 % 86 % 0 % 1016,0 hPa 0,0 l/m 0,0 km/h (0 Bft) W 270 0 min 10,9 C 14,9 C 0,0 km/h (0 Bft)
21.06.2016 01:25 14,0 C 23,0 C 15,2 C 15,0 C 15,0 C 1,0 C 81 % 86 % 0 % 1015,9 hPa 0,0 l/m 0,0 km/h (0 Bft) O-NO 67 0 min 10,8 C 15,0 C 0,0 km/h (0 Bft)
21.06.2016 01:30 14,0 C 23,0 C 15,3 C 15,1 C 15,1 C 1,1 C 81 % 86 % 0 % 1015,9 hPa 0,0 l/m 0,0 km/h (0 Bft) N-NW 337 0 min 10,8 C 15,1 C 0,0 km/h (0 Bft)
21.06.2016 01:35 14,0 C 23,0 C 15,2 C 15,1 C 15,1 C 1,1 C 81 % 86 % 0 % 1015,9 hPa 0,0 l/m 0,0 km/h (0 Bft) NW 315 0 min 10,8 C 15,1 C 0,0 km/h (0 Bft)
21.06.2016 01:40 14,0 C 23,1 C 15,3 C 15,0 C 15,0 C 1,0 C 81 % 87 % 0 % 1015,9 hPa 0,0 l/m 0,0 km/h (0 Bft) W 270 0 min 10,8 C 15,0 C 0,0 km/h (0 Bft)
21.06.2016 01:45 14,0 C 23,0 C 15,2 C 15,0 C 15,0 C 1,0 C 82 % 87 % 0 % 1015,8 hPa 0,0 l/m 0,0 km/h (0 Bft) W 270 0 min 11,0 C 15,0 C 0,0 km/h (0 Bft)
21.06.2016 01:50 14,0 C 23,1 C 15,2 C 14,9 C 14,9 C 0,9 C 82 % 87 % 0 % 1015,8 hPa 0,0 l/m 0,0 km/h (0 Bft) NO 45 0 min 11,0 C 14,9 C 0,0 km/h (0 Bft)
21.06.2016 01:55 14,0 C 23,1 C 15,2 C 14,9 C 14,9 C 0,9 C 82 % 87 % 0 % 1015,8 hPa 0,0 l/m 0,0 km/h (0 Bft) W 270 0 min 11,0 C 14,9 C 0,0 km/h (0 Bft)
21.06.2016 02:00 14,1 C 23,0 C 15,1 C 14,9 C 14,9 C 0,8 C 82 % 87 % 0 % 1015,8 hPa 0,0 l/m 0,0 km/h (0 Bft) W-NW 292 0 min 11,1 C 14,9 C 0,0 km/h (0 Bft)
21.06.2016 02:05 14,1 C 23,1 C 15,1 C 14,8 C 14,8 C 0,7 C 82 % 87 % 0 % 1015,8 hPa 0,0 l/m 0,0 km/h (0 Bft) W-NW 292 0 min 11,1 C 14,8 C 0,0 km/h (0 Bft)
21.06.2016 02:10 14,0 C 23,1 C 15,1 C 14,8 C 14,8 C 0,8 C 82 % 87 % 0 % 1015,8 hPa 0,0 l/m 0,0 km/h (0 Bft) O-NO 67 0 min 11,0 C 14,8 C 0,0 km/h (0 Bft)
21.06.2016 02:15 14,0 C 23,1 C 15,1 C 14,8 C 14,8 C 0,8 C 83 % 87 % 0 % 1015,8 hPa 0,0 l/m 0,0 km/h (0 Bft) O-NO 67 0 min 11,2 C 14,8 C 0,0 km/h (0 Bft)
21.06.2016 02:20 13,9 C 23,1 C 15,1 C 14,8 C 14,8 C 0,9 C 83 % 87 % 0 % 1015,8 hPa 0,0 l/m 0,0 km/h (0 Bft) O-NO 67 0 min 11,1 C 14,8 C 0,0 km/h (0 Bft)
21.06.2016 02:25 13,9 C 23,1 C 15,0 C 14,9 C 14,9 C 1,0 C 83 % 87 % 0 % 1015,9 hPa 0,0 l/m 0,0 km/h (0 Bft) N-NO 22 0 min 11,1 C 14,9 C 0,0 km/h (0 Bft)
21.06.2016 02:30 13,9 C 23,1 C 15,1 C 15,0 C 15,0 C 1,1 C 83 % 87 % 0 % 1015,9 hPa 0,0 l/m 0,0 km/h (0 Bft) O-SO 112 0 min 11,1 C 15,0 C 0,0 km/h (0 Bft)
21.06.2016 02:35 13,9 C 23,1 C 15,1 C 14,9 C 14,9 C 1,0 C 83 % 87 % 0 % 1015,9 hPa 0,0 l/m 0,2 km/h (0 Bft) SO 135 0 min 11,1 C 14,9 C 0,0 km/h (0 Bft)
21.06.2016 02:40 13,9 C 23,1 C 15,1 C 14,8 C 14,8 C 0,9 C 83 % 87 % 0 % 1015,9 hPa 0,0 l/m 0,2 km/h (0 Bft) NW 315 0 min 11,1 C 14,8 C 0,0 km/h (0 Bft)
21.06.2016 02:45 13,8 C 23,0 C 15,0 C 14,7 C 14,7 C 0,9 C 83 % 88 % 0 % 1016,3 hPa 0,0 l/m 0,0 km/h (0 Bft) NO 45 0 min 11,0 C 14,7 C 0,0 km/h (0 Bft)
21.06.2016 02:50 13,8 C 23,0 C 15,1 C 14,7 C 14,7 C 0,9 C 83 % 88 % 0 % 1016,3 hPa 0,0 l/m 0,0 km/h (0 Bft) NW 315 0 min 11,0 C 14,7 C 0,0 km/h (0 Bft)
21.06.2016 02:55 13,8 C 23,0 C 15,1 C 14,7 C 14,7 C 0,9 C 83 % 88 % 0 % 1016,3 hPa 0,0 l/m 0,0 km/h (0 Bft) SW 225 0 min 11,0 C 14,7 C 0,0 km/h (0 Bft)
21.06.2016 03:00 13,9 C 23,0 C 15,1 C 14,7 C 14,7 C 0,8 C 83 % 87 % 0 % 1016,3 hPa 0,0 l/m 0,0 km/h (0 Bft) O-NO 67 0 min 11,1 C 14,7 C 0,0 km/h (0 Bft)
21.06.2016 03:05 13,8 C 22,9 C 15,0 C 14,7 C 14,7 C 0,9 C 83 % 87 % 0 % 1016,1 hPa 0,0 l/m 0,0 km/h (0 Bft) O 90 0 min 11,0 C 14,7 C 0,0 km/h (0 Bft)
21.06.2016 03:10 13,7 C 22,9 C 14,9 C 14,7 C 14,7 C 1,0 C 83 % 87 % 0 % 1016,1 hPa 0,0 l/m 0,0 km/h (0 Bft) W-SW 247 0 min 10,9 C 14,7 C 0,0 km/h (0 Bft)
21.06.2016 03:15 13,7 C 22,8 C 15,0 C 14,9 C 14,9 C 1,2 C 83 % 87 % 0 % 1016,1 hPa 0,0 l/m 0,0 km/h (0 Bft) S 180 0 min 10,9 C 14,9 C 0,0 km/h (0 Bft)
21.06.2016 03:20 13,7 C 22,8 C 15,0 C 15,0 C 15,0 C 1,3 C 83 % 87 % 0 % 1016,1 hPa 0,0 l/m 0,0 km/h (0 Bft) SO 135 0 min 10,9 C 15,0 C 1,6 km/h (1 Bft)
21.06.2016 03:25 13,6 C 22,9 C 15,0 C 15,0 C 15,0 C 1,4 C 83 % 87 % 0 % 1016,1 hPa 0,0 l/m 0,0 km/h (0 Bft) SW 225 0 min 10,8 C 15,0 C 0,0 km/h (0 Bft)
21.06.2016 03:30 13,7 C 22,8 C 15,1 C 15,2 C 15,2 C 1,5 C 82 % 87 % 0 % 1016,1 hPa 0,0 l/m 0,2 km/h (0 Bft) S-SW 202 0 min 10,7 C 15,2 C 1,6 km/h (1 Bft)
21.06.2016 03:40 13,9 C 22,8 C 15,3 C 15,3 C 15,3 C 1,4 C 82 % 87 % 0 % 1016,1 hPa 0,0 l/m 0,3 km/h (0 Bft) S-SO 157 0 min 10,9 C 15,3 C 2,9 km/h (1 Bft)
21.06.2016 03:50 13,9 C 22,8 C 15,2 C 15,1 C 15,1 C 1,2 C 82 % 86 % 0 % 1016,0 hPa 0,0 l/m 0,8 km/h (0 Bft) SW 225 0 min 10,9 C 15,1 C 3,1 km/h (1 Bft)
21.06.2016 03:55 14,0 C 22,8 C 15,3 C 15,0 C 15,0 C 1,0 C 82 % 86 % 0 % 1016,0 hPa 0,0 l/m 1,1 km/h (1 Bft) W 270 0 min 11,0 C 15,0 C 4,8 km/h (1 Bft)
21.06.2016 04:00 14,0 C 22,8 C 15,3 C 15,0 C 15,0 C 1,0 C 82 % 86 % 0 % 1016,0 hPa 0,0 l/m 0,8 km/h (0 Bft) O-SO 112 0 min 11,0 C 15,0 C 2,6 km/h (1 Bft)
21.06.2016 04:05 14,1 C 22,8 C 15,3 C 15,0 C 15,0 C 0,9 C 81 % 86 % 0 % 1015,9 hPa 0,0 l/m 0,8 km/h (0 Bft) W 270 0 min 10,9 C 15,0 C 0,0 km/h (0 Bft)
21.06.2016 04:15 14,2 C 22,8 C 15,2 C 15,2 C 15,2 C 1,0 C 81 % 86 % 0 % 1015,9 hPa 0,0 l/m 0,3 km/h (0 Bft) S-SO 157 0 min 11,0 C 15,2 C 2,1 km/h (1 Bft)
21.06.2016 04:20 14,3 C 22,8 C 15,2 C 15,2 C 15,2 C 0,9 C 81 % 86 % 0 % 1015,9 hPa 0,0 l/m 0,2 km/h (0 Bft) SO 135 0 min 11,1 C 15,2 C 0,0 km/h (0 Bft)
21.06.2016 04:25 14,3 C 22,8 C 15,2 C 15,2 C 15,2 C 0,9 C 81 % 86 % 0 % 1015,8 hPa 0,0 l/m 0,3 km/h (0 Bft) S-SW 202 0 min 11,1 C 15,2 C 2,7 km/h (1 Bft)
21.06.2016 04:30 14,2 C 22,7 C 15,3 C 15,4 C 15,4 C 1,2 C 81 % 86 % 0 % 1015,8 hPa 0,0 l/m 0,6 km/h (0 Bft) S-SW 202 0 min 11,0 C 15,4 C 4,3 km/h (1 Bft)
21.06.2016 04:35 14,3 C 22,7 C 15,3 C 15,4 C 15,4 C 1,1 C 81 % 86 % 0 % 1015,8 hPa 0,0 l/m 1,3 km/h (1 Bft) S-SW 202 0 min 11,1 C 15,4 C 3,2 km/h (1 Bft)
21.06.2016 04:40 14,5 C 22,7 C 15,4 C 15,6 C 15,6 C 1,1 C 81 % 86 % 0 % 1015,8 hPa 0,0 l/m 1,8 km/h (1 Bft) SO 135 0 min 11,3 C 15,6 C 3,4 km/h (1 Bft)
21.06.2016 04:45 14,4 C 22,7 C 15,5 C 15,6 C 15,6 C 1,2 C 81 % 86 % 0 % 1015,6 hPa 0,0 l/m 1,4 km/h (1 Bft) S-SW 202 0 min 11,2 C 15,6 C 6,3 km/h (2 Bft)
21.06.2016 04:50 14,5 C 22,7 C 15,4 C 15,6 C 15,6 C 1,1 C 80 % 85 % 0 % 1015,6 hPa 0,0 l/m 1,1 km/h (1 Bft) SO 135 0 min 11,1 C 15,6 C 0,0 km/h (0 Bft)
21.06.2016 04:55 14,5 C 22,7 C 15,5 C 15,7 C 15,7 C 1,2 C 80 % 85 % 0 % 1015,6 hPa 0,0 l/m 1,1 km/h (1 Bft) S-SW 202 0 min 11,1 C 15,7 C 6,9 km/h (2 Bft)
21.06.2016 05:00 14,7 C 22,7 C 15,5 C 15,7 C 15,7 C 1,0 C 80 % 85 % 0 % 1015,6 hPa 0,0 l/m 0,6 km/h (0 Bft) S 180 0 min 11,3 C 15,7 C 3,2 km/h (1 Bft)
21.06.2016 05:05 14,6 C 22,7 C 15,5 C 15,7 C 15,7 C 1,1 C 80 % 85 % 0 % 1015,8 hPa 0,0 l/m 1,0 km/h (0 Bft) S 180 0 min 11,2 C 15,7 C 4,3 km/h (1 Bft)
21.06.2016 05:15 14,8 C 22,7 C 15,4 C 15,7 C 15,7 C 0,9 C 80 % 85 % 24 % 1015,8 hPa 0,0 l/m 1,1 km/h (1 Bft) S 180 10 min 11,4 C 15,7 C 1,9 km/h (1 Bft)
21.06.2016 05:20 14,8 C 22,7 C 15,5 C 15,8 C 15,8 C 1,0 C 80 % 85 % 26 % 1015,8 hPa 0,0 l/m 0,6 km/h (0 Bft) W-SW 247 5 min 11,4 C 15,8 C 0,0 km/h (0 Bft)
21.06.2016 05:25 14,9 C 22,7 C 15,6 C 15,8 C 15,8 C 0,9 C 80 % 85 % 24 % 1015,9 hPa 0,0 l/m 0,5 km/h (0 Bft) NO 45 5 min 11,5 C 15,8 C 0,0 km/h (0 Bft)
21.06.2016 05:30 14,8 C 22,7 C 15,6 C 15,8 C 15,8 C 1,0 C 80 % 85 % 26 % 1015,9 hPa 0,0 l/m 0,6 km/h (0 Bft) S 180 5 min 11,4 C 15,8 C 3,9 km/h (1 Bft)
21.06.2016 05:35 14,9 C 22,7 C 15,6 C 15,9 C 15,9 C 1,0 C 80 % 85 % 26 % 1015,9 hPa 0,0 l/m 1,3 km/h (1 Bft) S-SO 157 5 min 11,5 C 15,9 C 5,3 km/h (1 Bft)
21.06.2016 05:40 15,0 C 22,7 C 15,7 C 16,1 C 16,1 C 1,1 C 80 % 85 % 29 % 1015,9 hPa 0,0 l/m 1,9 km/h (1 Bft) S 180 5 min 11,6 C 16,1 C 2,4 km/h (1 Bft)
21.06.2016 05:45 15,2 C 22,7 C 15,7 C 16,1 C 16,1 C 0,9 C 79 % 85 % 24 % 1015,8 hPa 0,0 l/m 1,9 km/h (1 Bft) N-NO 22 0 min 11,6 C 16,1 C 1,9 km/h (1 Bft)
21.06.2016 05:50 15,2 C 22,7 C 15,8 C 16,1 C 16,1 C 0,9 C 79 % 84 % 24 % 1015,8 hPa 0,0 l/m 1,6 km/h (1 Bft) SO 135 0 min 11,6 C 16,1 C 2,9 km/h (1 Bft)
21.06.2016 05:55 15,3 C 22,7 C 15,8 C 16,1 C 16,1 C 0,8 C 79 % 84 % 21 % 1015,8 hPa 0,0 l/m 1,4 km/h (1 Bft) W-SW 247 0 min 11,7 C 16,1 C 7,1 km/h (2 Bft)
21.06.2016 06:00 15,5 C 22,7 C 15,9 C 16,3 C 16,3 C 0,8 C 79 % 84 % 21 % 1015,8 hPa 0,0 l/m 1,4 km/h (1 Bft) O 90 0 min 11,9 C 16,3 C 1,8 km/h (1 Bft)
21.06.2016 06:05 15,5 C 22,7 C 15,9 C 16,3 C 16,3 C 0,8 C 78 % 84 % 21 % 1016,2 hPa 0,0 l/m 1,3 km/h (1 Bft) S 180 0 min 11,7 C 16,3 C 1,9 km/h (1 Bft)
21.06.2016 06:15 15,6 C 22,6 C 15,9 C 16,5 C 16,5 C 0,9 C 78 % 84 % 24 % 1016,2 hPa 0,0 l/m 0,8 km/h (0 Bft) SW 225 0 min 11,8 C 16,5 C 3,7 km/h (1 Bft)
21.06.2016 06:20 15,6 C 22,6 C 15,9 C 16,6 C 16,6 C 1,0 C 78 % 84 % 26 % 1016,2 hPa 0,0 l/m 1,3 km/h (1 Bft) SW 225 0 min 11,8 C 16,6 C 4,2 km/h (1 Bft)
21.06.2016 06:25 15,7 C 22,6 C 16,0 C 16,7 C 16,7 C 1,0 C 78 % 84 % 26 % 1016,1 hPa 0,0 l/m 1,9 km/h (1 Bft) S 180 0 min 11,9 C 16,7 C 5,3 km/h (1 Bft)
21.06.2016 06:30 15,9 C 22,6 C 16,0 C 16,8 C 16,8 C 0,9 C 78 % 84 % 24 % 1016,1 hPa 0,0 l/m 1,8 km/h (1 Bft) W 270 0 min 12,1 C 16,8 C 0,0 km/h (0 Bft)
21.06.2016 06:35 15,9 C 22,6 C 16,0 C 16,9 C 16,9 C 1,0 C 78 % 84 % 26 % 1016,1 hPa 0,0 l/m 1,9 km/h (1 Bft) S-SO 157 0 min 12,1 C 16,9 C 4,5 km/h (1 Bft)
21.06.2016 06:53 16,1 C 22,6 C 16,1 C 17,0 C 17,0 C 0,9 C 78 % 83 % 24 % 1016,4 hPa 0,0 l/m 1,6 km/h (1 Bft) N 0 0 min 12,3 C 17,0 C 7,4 km/h (2 Bft)
21.06.2016 07:00 16,1 C 22,6 C 16,1 C 16,9 C 16,9 C 0,8 C 78 % 83 % 21 % 1016,4 hPa 0,0 l/m 1,9 km/h (1 Bft) W-NW 292 0 min 12,3 C 16,9 C 1,9 km/h (1 Bft)
21.06.2016 07:05 16,0 C 22,6 C 16,1 C 16,9 C 16,9 C 0,9 C 78 % 83 % 24 % 1016,2 hPa 0,0 l/m 2,1 km/h (1 Bft) O-SO 112 0 min 12,2 C 16,9 C 8,4 km/h (2 Bft)
21.06.2016 07:10 16,1 C 22,6 C 16,1 C 17,0 C 17,0 C 0,9 C 78 % 84 % 24 % 1016,2 hPa 0,0 l/m 1,4 km/h (1 Bft) S 180 0 min 12,3 C 17,0 C 1,6 km/h (1 Bft)
21.06.2016 07:15 16,1 C 22,6 C 16,1 C 17,0 C 17,0 C 0,9 C 78 % 84 % 24 % 1016,2 hPa 0,0 l/m 1,1 km/h (1 Bft) N-NO 22 0 min 12,3 C 17,0 C 0,0 km/h (0 Bft)
21.06.2016 07:20 16,0 C 22,6 C 16,1 C 17,1 C 17,1 C 1,1 C 78 % 84 % 29 % 1016,2 hPa 0,0 l/m 0,6 km/h (0 Bft) O 90 0 min 12,2 C 17,1 C 0,0 km/h (0 Bft)
21.06.2016 07:25 16,0 C 22,6 C 16,1 C 17,1 C 17,1 C 1,1 C 78 % 84 % 29 % 1016,3 hPa 0,0 l/m 0,5 km/h (0 Bft) S 180 0 min 12,2 C 17,1 C 0,0 km/h (0 Bft)
21.06.2016 07:30 16,0 C 22,6 C 16,1 C 17,1 C 17,1 C 1,1 C 78 % 84 % 29 % 1016,3 hPa 0,0 l/m 0,3 km/h (0 Bft) SO 135 0 min 12,2 C 17,1 C 0,0 km/h (0 Bft)
21.06.2016 07:35 16,1 C 22,6 C 16,3 C 17,2 C 17,2 C 1,1 C 78 % 84 % 29 % 1016,3 hPa 0,0 l/m 0,8 km/h (0 Bft) S-SW 202 0 min 12,3 C 17,2 C 0,0 km/h (0 Bft)
21.06.2016 07:40 16,3 C 22,6 C 16,2 C 17,3 C 17,3 C 1,0 C 78 % 84 % 26 % 1016,3 hPa 0,0 l/m 1,1 km/h (1 Bft) N-NO 22 0 min 12,5 C 17,3 C 1,8 km/h (1 Bft)
21.06.2016 07:45 16,3 C 22,6 C 16,3 C 17,3 C 17,3 C 1,0 C 78 % 84 % 26 % 1016,6 hPa 0,0 l/m 1,1 km/h (1 Bft) SW 225 0 min 12,5 C 17,3 C 3,2 km/h (1 Bft)
21.06.2016 07:50 16,3 C 22,6 C 16,3 C 17,5 C 17,5 C 1,2 C 78 % 84 % 32 % 1016,6 hPa 0,0 l/m 1,6 km/h (1 Bft) S-SW 202 0 min 12,5 C 17,5 C 2,9 km/h (1 Bft)
21.06.2016 07:55 16,3 C 22,6 C 16,3 C 17,5 C 17,5 C 1,2 C 78 % 84 % 32 % 1016,6 hPa 0,0 l/m 1,6 km/h (1 Bft) S 180 0 min 12,5 C 17,5 C 0,0 km/h (0 Bft)
21.06.2016 08:00 16,5 C 22,6 C 16,4 C 17,6 C 17,6 C 1,1 C 78 % 84 % 29 % 1016,6 hPa 0,0 l/m 1,1 km/h (1 Bft) S-SW 202 0 min 12,6 C 17,6 C 2,7 km/h (1 Bft)
21.06.2016 08:05 16,4 C 22,6 C 16,5 C 17,7 C 17,7 C 1,3 C 78 % 84 % 34 % 1016,9 hPa 0,0 l/m 1,0 km/h (0 Bft) SW 225 0 min 12,6 C 17,7 C 1,9 km/h (1 Bft)
21.06.2016 08:15 16,5 C 22,6 C 16,4 C 17,9 C 17,9 C 1,4 C 78 % 84 % 37 % 1016,9 hPa 0,0 l/m 1,8 km/h (1 Bft) SW 225 0 min 12,6 C 17,9 C 0,0 km/h (0 Bft)
21.06.2016 08:20 16,7 C 22,6 C 16,7 C 18,2 C 18,2 C 1,5 C 78 % 84 % 39 % 1016,9 hPa 0,0 l/m 1,9 km/h (1 Bft) W 270 0 min 12,8 C 18,2 C 2,4 km/h (1 Bft)
21.06.2016 08:25 16,6 C 22,6 C 16,7 C 18,4 C 18,4 C 1,8 C 78 % 84 % 47 % 1017,1 hPa 0,0 l/m 1,4 km/h (1 Bft) W-SW 247 0 min 12,7 C 18,4 C 2,6 km/h (1 Bft)
21.06.2016 08:30 16,8 C 22,6 C 16,7 C 18,4 C 18,4 C 1,6 C 78 % 84 % 42 % 1017,1 hPa 0,0 l/m 1,6 km/h (1 Bft) S 180 0 min 12,9 C 18,4 C 3,7 km/h (1 Bft)
21.06.2016 08:35 16,8 C 22,6 C 16,7 C 18,4 C 18,4 C 1,6 C 78 % 84 % 42 % 1017,1 hPa 0,0 l/m 1,6 km/h (1 Bft) W-SW 247 0 min 12,9 C 18,4 C 0,0 km/h (0 Bft)
21.06.2016 08:40 16,9 C 22,6 C 16,8 C 18,4 C 18,4 C 1,5 C 78 % 84 % 39 % 1017,1 hPa 0,0 l/m 1,6 km/h (1 Bft) S 180 0 min 13,0 C 18,4 C 2,7 km/h (1 Bft)
21.06.2016 08:45 16,9 C 22,6 C 16,8 C 18,5 C 18,5 C 1,6 C 78 % 83 % 42 % 1017,1 hPa 0,0 l/m 1,4 km/h (1 Bft) S-SW 202 0 min 13,0 C 18,5 C 0,0 km/h (0 Bft)
21.06.2016 08:55 17,2 C 22,6 C 17,2 C 19,5 C 19,5 C 2,3 C 77 % 83 % 61 % 1017,1 hPa 0,0 l/m 2,1 km/h (1 Bft) S 180 0 min 13,1 C 19,5 C 3,1 km/h (1 Bft)
21.06.2016 09:00 17,5 C 22,6 C 17,3 C 20,0 C 20,0 C 2,5 C 76 % 83 % 66 % 1017,1 hPa 0,0 l/m 2,7 km/h (1 Bft) S 180 0 min 13,2 C 20,0 C 3,4 km/h (1 Bft)
21.06.2016 09:05 17,7 C 22,6 C 17,5 C 20,5 C 20,5 C 2,8 C 77 % 83 % 74 % 1017,6 hPa 0,0 l/m 2,1 km/h (1 Bft) S 180 0 min 13,6 C 20,5 C 10,0 km/h (2 Bft)
21.06.2016 09:10 18,1 C 22,6 C 17,9 C 21,7 C 21,7 C 3,6 C 76 % 82 % 95 % 1017,6 hPa 0,0 l/m 2,1 km/h (1 Bft) S-SO 157 5 min 13,8 C 21,7 C 2,7 km/h (1 Bft)
21.06.2016 09:15 18,3 C 22,6 C 17,9 C 22,0 C 22,0 C 3,7 C 76 % 82 % 97 % 1017,6 hPa 0,0 l/m 2,3 km/h (1 Bft) SO 135 5 min 14,0 C 22,0 C 3,9 km/h (1 Bft)
21.06.2016 09:20 18,5 C 22,6 C 17,7 C 20,9 C 20,9 C 2,4 C 74 % 81 % 63 % 1017,6 hPa 0,0 l/m 2,3 km/h (1 Bft) W 270 0 min 13,8 C 20,9 C 3,7 km/h (1 Bft)
21.06.2016 09:25 18,4 C 22,6 C 17,6 C 20,2 C 20,2 C 1,8 C 74 % 81 % 47 % 1017,5 hPa 0,0 l/m 2,1 km/h (1 Bft) W-SW 247 0 min 13,7 C 20,2 C 2,6 km/h (1 Bft)
21.06.2016 09:30 18,3 C 22,6 C 17,7 C 20,2 C 20,2 C 1,9 C 74 % 81 % 50 % 1017,5 hPa 0,0 l/m 1,4 km/h (1 Bft) SO 135 0 min 13,6 C 20,2 C 0,0 km/h (0 Bft)
21.06.2016 09:35 18,3 C 22,6 C 17,6 C 20,3 C 20,3 C 2,0 C 74 % 81 % 53 % 1017,5 hPa 0,0 l/m 1,9 km/h (1 Bft) W 270 0 min 13,6 C 20,3 C 2,4 km/h (1 Bft)
21.06.2016 09:56 18,5 C 22,6 C 18,0 C 21,2 C 21,2 C 2,7 C 74 % 80 % 71 % 1017,6 hPa 0,0 l/m 2,7 km/h (1 Bft) N 0 0 min 13,8 C 21,2 C 2,6 km/h (1 Bft)
21.06.2016 10:05 18,7 C 22,5 C 18,1 C 21,5 C 21,5 C 2,8 C 74 % 80 % 74 % 1018,0 hPa 0,0 l/m 2,7 km/h (1 Bft) SW 225 0 min 14,0 C 21,5 C 4,3 km/h (1 Bft)
21.06.2016 10:10 18,8 C 22,5 C 18,1 C 21,3 C 21,3 C 2,5 C 73 % 79 % 66 % 1018,0 hPa 0,0 l/m 3,5 km/h (1 Bft) W-SW 247 0 min 13,9 C 21,3 C 3,9 km/h (1 Bft)
21.06.2016 10:20 18,6 C 22,5 C 17,9 C 20,0 C 20,0 C 1,4 C 73 % 79 % 37 % 1018,0 hPa 0,0 l/m 2,4 km/h (1 Bft) NW 315 0 min 13,7 C 20,0 C 4,3 km/h (1 Bft)
21.06.2016 10:25 18,5 C 22,5 C 17,9 C 19,7 C 19,7 C 1,2 C 73 % 79 % 32 % 1018,2 hPa 0,0 l/m 2,3 km/h (1 Bft) S 180 0 min 13,6 C 19,7 C 3,1 km/h (1 Bft)
21.06.2016 10:30 18,5 C 22,6 C 17,9 C 19,6 C 19,6 C 1,1 C 74 % 80 % 29 % 1018,2 hPa 0,0 l/m 2,3 km/h (1 Bft) NW 315 0 min 13,8 C 19,6 C 2,9 km/h (1 Bft)
21.06.2016 10:35 18,5 C 22,5 C 17,8 C 19,9 C 19,9 C 1,4 C 74 % 80 % 37 % 1018,2 hPa 0,0 l/m 1,3 km/h (1 Bft) W 270 0 min 13,8 C 19,9 C 0,0 km/h (0 Bft)
21.06.2016 10:40 18,7 C 22,5 C 18,0 C 20,2 C 20,2 C 1,5 C 74 % 80 % 39 % 1018,2 hPa 0,0 l/m 1,1 km/h (1 Bft) N-NW 337 0 min 14,0 C 20,2 C 0,0 km/h (0 Bft)
21.06.2016 10:45 18,7 C 22,5 C 18,0 C 20,5 C 20,5 C 1,8 C 74 % 81 % 47 % 1018,4 hPa 0,0 l/m 1,3 km/h (1 Bft) S-SO 157 0 min 14,0 C 20,5 C 0,0 km/h (0 Bft)
21.06.2016 10:50 18,8 C 22,5 C 18,3 C 21,3 C 21,3 C 2,5 C 75 % 81 % 66 % 1018,4 hPa 0,0 l/m 0,8 km/h (0 Bft) N 360 0 min 14,3 C 21,3 C 2,6 km/h (1 Bft)
21.06.2016 10:55 19,1 C 22,5 C 18,3 C 21,5 C 21,5 C 2,4 C 74 % 81 % 63 % 1018,4 hPa 0,0 l/m 1,0 km/h (0 Bft) W-SW 247 0 min 14,4 C 21,5 C 3,9 km/h (1 Bft)
21.06.2016 11:00 19,1 C 22,5 C 18,2 C 21,2 C 21,2 C 2,1 C 74 % 81 % 55 % 1018,4 hPa 0,0 l/m 1,3 km/h (1 Bft) W 270 0 min 14,4 C 21,2 C 2,3 km/h (1 Bft)
21.06.2016 11:05 19,1 C 22,5 C 18,0 C 20,9 C 20,9 C 1,8 C 74 % 81 % 47 % 1018,5 hPa 0,0 l/m 1,3 km/h (1 Bft) SW 225 0 min 14,4 C 20,9 C 5,5 km/h (1 Bft)
21.06.2016 11:15 19,1 C 22,5 C 18,0 C 20,4 C 20,4 C 1,3 C 73 % 81 % 34 % 1018,5 hPa 0,0 l/m 1,3 km/h (1 Bft) S 180 0 min 14,1 C 20,4 C 3,2 km/h (1 Bft)
21.06.2016 11:20 18,9 C 22,5 C 18,0 C 20,3 C 20,3 C 1,4 C 73 % 81 % 37 % 1018,5 hPa 0,0 l/m 1,6 km/h (1 Bft) W-SW 247 0 min 13,9 C 20,3 C 2,9 km/h (1 Bft)
21.06.2016 11:25 18,9 C 22,5 C 18,0 C 20,2 C 20,2 C 1,3 C 73 % 81 % 34 % 1018,8 hPa 0,0 l/m 1,8 km/h (1 Bft) S-SW 202 0 min 13,9 C 20,2 C 1,6 km/h (1 Bft)
21.06.2016 11:30 18,8 C 22,5 C 18,0 C 20,2 C 20,2 C 1,4 C 74 % 81 % 37 % 1018,8 hPa 0,0 l/m 1,9 km/h (1 Bft) SW 225 0 min 14,1 C 20,2 C 4,7 km/h (1 Bft)
21.06.2016 11:35 18,9 C 22,5 C 18,1 C 20,2 C 20,2 C 1,3 C 74 % 81 % 34 % 1018,8 hPa 0,0 l/m 1,4 km/h (1 Bft) SW 225 0 min 14,2 C 20,2 C 2,3 km/h (1 Bft)
21.06.2016 11:40 18,8 C 22,5 C 18,3 C 20,6 C 20,6 C 1,8 C 74 % 81 % 47 % 1018,8 hPa 0,0 l/m 1,0 km/h (0 Bft) O 90 0 min 14,1 C 20,6 C 3,7 km/h (1 Bft)
21.06.2016 11:45 18,9 C 22,5 C 18,4 C 21,2 C 21,2 C 2,3 C 75 % 81 % 61 % 1019,1 hPa 0,0 l/m 1,0 km/h (0 Bft) W-SW 247 0 min 14,4 C 21,2 C 2,3 km/h (1 Bft)
21.06.2016 11:50 19,2 C 22,5 C 18,5 C 21,7 C 21,7 C 2,5 C 74 % 81 % 66 % 1019,1 hPa 0,0 l/m 1,3 km/h (1 Bft) SW 225 0 min 14,4 C 21,7 C 0,0 km/h (0 Bft)
21.06.2016 11:55 19,2 C 22,5 C 18,5 C 21,9 C 21,9 C 2,7 C 74 % 81 % 71 % 1019,1 hPa 0,0 l/m 1,3 km/h (1 Bft) SW 225 0 min 14,4 C 21,9 C 1,8 km/h (1 Bft)
21.06.2016 12:00 19,3 C 22,5 C 18,5 C 21,7 C 21,7 C 2,4 C 73 % 81 % 63 % 1019,1 hPa 0,0 l/m 1,1 km/h (1 Bft) SW 225 0 min 14,3 C 21,7 C 0,0 km/h (0 Bft)
21.06.2016 12:05 19,3 C 22,5 C 18,5 C 21,4 C 21,4 C 2,1 C 73 % 81 % 55 % 1019,3 hPa 0,0 l/m 1,1 km/h (1 Bft) SW 225 0 min 14,3 C 21,4 C 2,3 km/h (1 Bft)
21.06.2016 12:15 19,4 C 22,6 C 18,8 C 22,1 C 22,1 C 2,7 C 74 % 81 % 71 % 1019,3 hPa 0,0 l/m 0,8 km/h (0 Bft) S-SO 157 0 min 14,6 C 22,1 C 1,8 km/h (1 Bft)
21.06.2016 12:20 19,7 C 22,6 C 18,9 C 22,5 C 22,5 C 2,8 C 74 % 81 % 74 % 1019,3 hPa 0,0 l/m 1,0 km/h (0 Bft) W 270 0 min 14,9 C 22,5 C 3,2 km/h (1 Bft)
21.06.2016 12:25 19,7 C 22,6 C 18,8 C 22,5 C 22,5 C 2,8 C 73 % 81 % 74 % 1019,1 hPa 0,0 l/m 1,3 km/h (1 Bft) W-SW 247 0 min 14,7 C 22,5 C 0,0 km/h (0 Bft)
21.06.2016 12:30 20,1 C 22,6 C 19,1 C 23,4 C 23,4 C 3,3 C 74 % 81 % 87 % 1019,1 hPa 0,0 l/m 0,8 km/h (0 Bft) S 180 5 min 15,3 C 23,4 C 2,1 km/h (1 Bft)
21.06.2016 12:35 20,5 C 22,6 C 19,1 C 24,7 C 24,7 C 4,2 C 73 % 81 % 100 % 1019,1 hPa 0,0 l/m 0,8 km/h (0 Bft) S-SO 157 5 min 15,5 C 24,7 C 4,5 km/h (1 Bft)
21.06.2016 12:56 22,9 C 22,6 C 20,0 C 28,0 C 28,0 C 5,1 C 65 % 77 % 100 % 1019,4 hPa 0,0 l/m 1,9 km/h (1 Bft) N 0 21 min 16,0 C 28,0 C 2,3 km/h (1 Bft)
21.06.2016 13:00 22,9 C 22,6 C 20,0 C 26,8 C 26,8 C 3,9 C 64 % 76 % 100 % 1019,4 hPa 0,0 l/m 1,3 km/h (1 Bft) N-NO 22 4 min 15,7 C 26,8 C 0,0 km/h (0 Bft)
21.06.2016 13:05 23,0 C 22,6 C 20,3 C 27,1 C 27,1 C 4,1 C 64 % 77 % 100 % 1019,1 hPa 0,0 l/m 1,3 km/h (1 Bft) S 180 5 min 15,8 C 27,1 C 4,8 km/h (1 Bft)
21.06.2016 13:15 23,8 C 22,5 C 20,9 C 29,4 C 29,4 C 5,6 C 63 % 75 % 100 % 1019,1 hPa 0,0 l/m 1,9 km/h (1 Bft) S 180 10 min 16,3 C 29,4 C 1,6 km/h (1 Bft)
21.06.2016 13:20 23,9 C 22,5 C 20,8 C 28,7 C 28,7 C 4,8 C 60 % 74 % 100 % 1019,1 hPa 0,0 l/m 1,8 km/h (1 Bft) S 180 5 min 15,7 C 28,7 C 5,1 km/h (1 Bft)
21.06.2016 13:25 23,6 C 22,5 C 20,7 C 27,2 C 27,2 C 3,6 C 61 % 74 % 95 % 1019,2 hPa 0,0 l/m 1,9 km/h (1 Bft) S-SO 157 5 min 15,6 C 27,2 C 2,7 km/h (1 Bft)
21.06.2016 13:30 23,1 C 22,5 C 20,7 C 26,2 C 26,2 C 3,1 C 60 % 74 % 82 % 1019,2 hPa 0,0 l/m 2,9 km/h (1 Bft) S-SW 202 0 min 14,9 C 26,2 C 3,7 km/h (1 Bft)
21.06.2016 13:35 23,1 C 22,6 C 21,0 C 26,7 C 26,7 C 3,6 C 62 % 74 % 95 % 1019,2 hPa 0,0 l/m 2,6 km/h (1 Bft) S-SO 157 5 min 15,4 C 26,7 C 10,6 km/h (2 Bft)
21.06.2016 13:40 23,5 C 22,6 C 21,3 C 28,2 C 28,2 C 4,7 C 61 % 74 % 100 % 1019,2 hPa 0,0 l/m 1,9 km/h (1 Bft) S-SW 202 5 min 15,5 C 28,2 C 6,6 km/h (2 Bft)
21.06.2016 13:45 24,0 C 22,6 C 21,5 C 28,9 C 28,9 C 4,9 C 60 % 73 % 100 % 1019,1 hPa 0,0 l/m 1,4 km/h (1 Bft) SW 225 5 min 15,7 C 28,9 C 1,6 km/h (1 Bft)
21.06.2016 13:50 24,4 C 22,6 C 21,7 C 29,1 C 29,1 C 4,7 C 59 % 72 % 100 % 1019,1 hPa 0,0 l/m 2,1 km/h (1 Bft) S-SW 202 5 min 15,9 C 29,1 C 3,4 km/h (1 Bft)
21.06.2016 13:55 24,3 C 22,6 C 21,7 C 28,6 C 28,6 C 4,3 C 58 % 71 % 100 % 1019,1 hPa 0,0 l/m 1,9 km/h (1 Bft) SW 225 5 min 15,5 C 28,6 C 1,6 km/h (1 Bft)
21.06.2016 14:00 24,3 C 22,6 C 21,9 C 29,1 C 29,1 C 4,8 C 58 % 70 % 100 % 1019,1 hPa 0,0 l/m 2,6 km/h (1 Bft) S 180 5 min 15,5 C 29,1 C 3,2 km/h (1 Bft)
21.06.2016 14:05 24,3 C 22,6 C 21,6 C 28,7 C 28,7 C 4,4 C 57 % 70 % 100 % 1019,4 hPa 0,0 l/m 2,9 km/h (1 Bft) SO 135 5 min 15,2 C 28,7 C 3,4 km/h (1 Bft)
21.06.2016 14:15 24,0 C 22,6 C 21,6 C 27,3 C 27,3 C 3,3 C 57 % 71 % 87 % 1019,4 hPa 0,0 l/m 1,0 km/h (0 Bft) W-SW 247 10 min 14,9 C 27,3 C 1,8 km/h (1 Bft)
21.06.2016 14:20 23,9 C 22,6 C 21,6 C 27,3 C 27,3 C 3,4 C 58 % 71 % 89 % 1019,4 hPa 0,0 l/m 1,1 km/h (1 Bft) SW 225 5 min 15,1 C 27,3 C 3,2 km/h (1 Bft)
21.06.2016 14:25 24,0 C 22,6 C 21,9 C 27,9 C 27,9 C 3,9 C 58 % 72 % 100 % 1019,4 hPa 0,0 l/m 1,9 km/h (1 Bft) W-SW 247 5 min 15,2 C 27,9 C 6,8 km/h (2 Bft)
21.06.2016 14:30 24,0 C 22,7 C 21,7 C 27,8 C 27,8 C 3,8 C 57 % 70 % 100 % 1019,4 hPa 0,0 l/m 2,9 km/h (1 Bft) SW 225 5 min 14,9 C 27,8 C 3,7 km/h (1 Bft)
21.06.2016 14:35 23,9 C 22,7 C 21,8 C 27,9 C 27,9 C 4,0 C 58 % 69 % 100 % 1019,4 hPa 0,0 l/m 2,4 km/h (1 Bft) O-NO 67 5 min 15,1 C 27,9 C 0,0 km/h (0 Bft)
21.06.2016 14:40 24,0 C 22,7 C 21,8 C 28,0 C 28,0 C 4,0 C 56 % 68 % 100 % 1019,4 hPa 0,0 l/m 1,4 km/h (1 Bft) W 270 5 min 14,7 C 28,0 C 0,0 km/h (0 Bft)
21.06.2016 14:45 23,9 C 22,7 C 21,8 C 27,8 C 27,8 C 3,9 C 56 % 68 % 100 % 1019,6 hPa 0,0 l/m 1,9 km/h (1 Bft) S 180 5 min 14,6 C 27,8 C 2,3 km/h (1 Bft)
21.06.2016 14:50 23,8 C 22,7 C 21,6 C 27,5 C 27,5 C 3,7 C 57 % 69 % 97 % 1019,6 hPa 0,0 l/m 2,1 km/h (1 Bft) S 180 5 min 14,8 C 27,5 C 4,5 km/h (1 Bft)
21.06.2016 14:55 23,9 C 22,7 C 21,9 C 27,5 C 27,5 C 3,6 C 58 % 70 % 95 % 1019,6 hPa 0,0 l/m 1,9 km/h (1 Bft) W-SW 247 5 min 15,1 C 27,5 C 1,9 km/h (1 Bft)
21.06.2016 15:00 23,9 C 22,7 C 21,8 C 27,4 C 27,4 C 3,5 C 57 % 69 % 92 % 1019,6 hPa 0,0 l/m 1,8 km/h (1 Bft) SO 135 5 min 14,9 C 27,4 C 0,0 km/h (0 Bft)
21.06.2016 15:05 23,9 C 22,7 C 21,7 C 27,2 C 27,2 C 3,3 C 57 % 69 % 87 % 1019,4 hPa 0,0 l/m 1,6 km/h (1 Bft) S-SO 157 5 min 14,9 C 27,2 C 1,8 km/h (1 Bft)
21.06.2016 15:15 24,0 C 22,7 C 21,9 C 27,7 C 27,7 C 3,7 C 59 % 69 % 97 % 1019,4 hPa 0,0 l/m 0,6 km/h (0 Bft) SO 135 10 min 15,5 C 27,7 C 0,0 km/h (0 Bft)
21.06.2016 15:20 24,1 C 22,7 C 21,9 C 27,9 C 27,9 C 3,8 C 58 % 70 % 100 % 1019,4 hPa 0,0 l/m 0,6 km/h (0 Bft) W-SW 247 5 min 15,3 C 27,9 C 0,0 km/h (0 Bft)
21.06.2016 15:25 24,2 C 22,8 C 22,0 C 28,2 C 28,2 C 4,0 C 60 % 70 % 100 % 1019,8 hPa 0,0 l/m 0,3 km/h (0 Bft) N 360 5 min 15,9 C 28,2 C 0,0 km/h (0 Bft)
21.06.2016 15:30 24,7 C 22,8 C 22,4 C 29,9 C 29,9 C 5,2 C 58 % 70 % 100 % 1019,8 hPa 0,0 l/m 1,4 km/h (1 Bft) S-SW 202 5 min 15,9 C 29,9 C 0,0 km/h (0 Bft)
21.06.2016 15:35 25,1 C 22,8 C 22,9 C 30,5 C 30,5 C 5,4 C 56 % 69 % 100 % 1019,8 hPa 0,0 l/m 1,9 km/h (1 Bft) NW 315 5 min 15,7 C 30,5 C 2,4 km/h (1 Bft)
21.06.2016 15:50 25,6 C 22,8 C 22,8 C 29,7 C 29,7 C 4,1 C 55 % 69 % 100 % 1019,8 hPa 0,0 l/m 0,8 km/h (0 Bft) N 0 15 min 15,9 C 29,7 C 0,0 km/h (0 Bft)
21.06.2016 15:55 25,6 C 22,8 C 23,0 C 30,0 C 30,0 C 4,4 C 56 % 68 % 100 % 1019,8 hPa 0,0 l/m 0,8 km/h (0 Bft) O 90 5 min 16,2 C 30,0 C 2,4 km/h (1 Bft)
21.06.2016 16:00 25,9 C 22,8 C 23,4 C 31,0 C 31,0 C 5,1 C 55 % 68 % 100 % 1019,8 hPa 0,0 l/m 0,5 km/h (0 Bft) W 270 5 min 16,2 C 31,0 C 2,6 km/h (1 Bft)
21.06.2016 16:05 25,8 C 22,8 C 23,6 C 31,5 C 31,5 C 5,7 C 55 % 68 % 100 % 1019,5 hPa 0,0 l/m 0,5 km/h (0 Bft) O-SO 112 5 min 16,1 C 31,5 C 2,4 km/h (1 Bft)
21.06.2016 16:10 25,4 C 22,9 C 23,6 C 31,5 C 31,5 C 6,1 C 55 % 66 % 100 % 1019,5 hPa 0,0 l/m 0,5 km/h (0 Bft) N-NW 337 5 min 15,7 C 31,5 C 1,9 km/h (1 Bft)
21.06.2016 16:15 25,2 C 22,9 C 24,1 C 31,5 C 31,5 C 6,3 C 54 % 66 % 100 % 1019,5 hPa 0,0 l/m 0,6 km/h (0 Bft) S 180 5 min 15,2 C 31,5 C 0,0 km/h (0 Bft)
21.06.2016 16:20 25,0 C 22,9 C 24,8 C 31,7 C 31,7 C 6,7 C 54 % 64 % 100 % 1019,5 hPa 0,0 l/m 1,3 km/h (1 Bft) W 270 5 min 15,0 C 31,7 C 1,9 km/h (1 Bft)
21.06.2016 16:25 24,9 C 22,9 C 24,9 C 31,2 C 31,2 C 6,3 C 55 % 64 % 100 % 1019,6 hPa 0,0 l/m 1,1 km/h (1 Bft) W 270 5 min 15,2 C 31,2 C 2,1 km/h (1 Bft)
21.06.2016 16:30 24,8 C 22,9 C 26,0 C 31,4 C 31,4 C 6,6 C 55 % 64 % 100 % 1019,6 hPa 0,0 l/m 1,3 km/h (1 Bft) SO 135 5 min 15,1 C 31,4 C 2,7 km/h (1 Bft)
21.06.2016 16:35 24,9 C 22,9 C 26,2 C 32,3 C 32,3 C 7,4 C 55 % 59 % 100 % 1019,6 hPa 0,0 l/m 1,3 km/h (1 Bft) S-SW 202 5 min 15,2 C 32,3 C 0,0 km/h (0 Bft)
21.06.2016 16:40 25,0 C 22,9 C 24,9 C 31,3 C 31,3 C 6,3 C 54 % 60 % 100 % 1019,6 hPa 0,0 l/m 1,6 km/h (1 Bft) S 180 5 min 15,0 C 31,3 C 3,9 km/h (1 Bft)
21.06.2016 16:45 24,8 C 22,9 C 24,4 C 30,1 C 30,1 C 5,3 C 54 % 60 % 100 % 1019,4 hPa 0,0 l/m 1,4 km/h (1 Bft) W 270 5 min 14,8 C 30,1 C 2,6 km/h (1 Bft)
21.06.2016 16:50 24,8 C 22,9 C 24,4 C 29,3 C 29,3 C 4,5 C 54 % 62 % 100 % 1019,4 hPa 0,0 l/m 1,1 km/h (1 Bft) S-SO 157 5 min 14,8 C 29,3 C 2,3 km/h (1 Bft)
21.06.2016 16:55 24,8 C 22,9 C 23,9 C 29,3 C 29,3 C 4,5 C 54 % 61 % 100 % 1019,4 hPa 0,0 l/m 0,8 km/h (0 Bft) W-NW 292 5 min 14,8 C 29,3 C 2,4 km/h (1 Bft)
21.06.2016 17:00 24,7 C 22,9 C 24,0 C 28,6 C 28,6 C 3,9 C 54 % 62 % 100 % 1019,4 hPa 0,0 l/m 0,6 km/h (0 Bft) W 270 5 min 14,8 C 28,6 C 1,9 km/h (1 Bft)
21.06.2016 17:05 24,8 C 22,9 C 24,4 C 29,5 C 29,5 C 4,7 C 54 % 63 % 100 % 1019,4 hPa 0,0 l/m 1,3 km/h (1 Bft) W 270 5 min 14,8 C 29,5 C 0,0 km/h (0 Bft)
21.06.2016 17:15 24,8 C 23,0 C 24,1 C 30,2 C 30,2 C 5,4 C 54 % 60 % 100 % 1019,4 hPa 0,0 l/m 1,1 km/h (1 Bft) S-SW 202 10 min 14,8 C 30,2 C 2,4 km/h (1 Bft)
21.06.2016 17:20 24,7 C 23,0 C 24,7 C 29,5 C 29,5 C 4,8 C 54 % 63 % 100 % 1019,4 hPa 0,0 l/m 0,8 km/h (0 Bft) N-NW 337 5 min 14,8 C 29,5 C 0,0 km/h (0 Bft)
21.06.2016 17:25 24,7 C 23,0 C 25,1 C 31,0 C 31,0 C 6,3 C 54 % 61 % 100 % 1019,6 hPa 0,0 l/m 0,3 km/h (0 Bft) N-NO 22 5 min 14,8 C 31,0 C 0,0 km/h (0 Bft)
21.06.2016 17:30 24,9 C 23,0 C 26,0 C 32,5 C 32,5 C 7,6 C 54 % 60 % 100 % 1019,6 hPa 0,0 l/m 0,5 km/h (0 Bft) W-SW 247 5 min 14,9 C 32,5 C 3,2 km/h (1 Bft)
21.06.2016 17:35 24,8 C 23,0 C 26,2 C 32,9 C 32,9 C 8,1 C 54 % 57 % 100 % 1019,6 hPa 0,0 l/m 0,5 km/h (0 Bft) N-NO 22 5 min 14,8 C 32,9 C 0,0 km/h (0 Bft)
21.06.2016 17:40 24,7 C 23,0 C 25,5 C 33,6 C 33,6 C 8,9 C 54 % 57 % 100 % 1019,6 hPa 0,0 l/m 0,3 km/h (0 Bft) O-NO 67 5 min 14,8 C 33,6 C 0,0 km/h (0 Bft)
21.06.2016 17:45 24,7 C 23,0 C 24,9 C 33,2 C 33,2 C 8,5 C 55 % 58 % 100 % 1019,8 hPa 0,0 l/m 0,2 km/h (0 Bft) O-SO 112 5 min 15,0 C 33,2 C 0,0 km/h (0 Bft)
21.06.2016 17:50 24,6 C 23,0 C 24,3 C 31,9 C 31,9 C 7,3 C 55 % 59 % 100 % 1019,8 hPa 0,0 l/m 0,3 km/h (0 Bft) N-NO 22 5 min 14,9 C 31,9 C 0,0 km/h (0 Bft)
21.06.2016 17:55 24,4 C 23,0 C 23,9 C 29,8 C 29,8 C 5,4 C 56 % 60 % 100 % 1019,8 hPa 0,0 l/m 0,2 km/h (0 Bft) SW 225 5 min 15,0 C 29,8 C 0,0 km/h (0 Bft)
21.06.2016 18:00 24,2 C 23,0 C 23,3 C 27,8 C 27,8 C 3,6 C 57 % 64 % 95 % 1019,8 hPa 0,0 l/m 0,2 km/h (0 Bft) S 180 5 min 15,1 C 27,8 C 1,6 km/h (1 Bft)
21.06.2016 18:05 24,2 C 23,0 C 23,2 C 27,1 C 27,1 C 2,9 C 57 % 65 % 76 % 1019,6 hPa 0,0 l/m 0,2 km/h (0 Bft) SW 225 0 min 15,1 C 27,1 C 0,0 km/h (0 Bft)
21.06.2016 18:15 24,0 C 23,1 C 22,8 C 26,4 C 26,4 C 2,4 C 57 % 65 % 63 % 1019,6 hPa 0,0 l/m 0,3 km/h (0 Bft) S 180 0 min 14,9 C 26,4 C 2,6 km/h (1 Bft)
21.06.2016 18:20 23,9 C 23,1 C 22,6 C 25,9 C 25,9 C 2,0 C 58 % 66 % 53 % 1019,6 hPa 0,0 l/m 0,5 km/h (0 Bft) O-SO 112 0 min 15,1 C 25,9 C 0,0 km/h (0 Bft)
21.06.2016 18:25 23,8 C 23,1 C 22,5 C 25,6 C 25,6 C 1,8 C 58 % 66 % 47 % 1019,7 hPa 0,0 l/m 0,5 km/h (0 Bft) NO 45 0 min 15,0 C 25,6 C 0,0 km/h (0 Bft)
21.06.2016 18:30 23,8 C 23,1 C 22,5 C 26,6 C 26,6 C 2,8 C 58 % 67 % 74 % 1019,7 hPa 0,0 l/m 0,5 km/h (0 Bft) SO 135 0 min 15,0 C 26,6 C 0,0 km/h (0 Bft)
21.06.2016 18:35 23,9 C 23,1 C 22,5 C 26,6 C 26,6 C 2,7 C 60 % 68 % 71 % 1019,7 hPa 0,0 l/m 0,5 km/h (0 Bft) O-NO 67 0 min 15,7 C 26,6 C 0,0 km/h (0 Bft)
21.06.2016 18:51 23,9 C 23,1 C 22,4 C 28,0 C 28,0 C 4,1 C 58 % 67 % 100 % 1019,8 hPa 0,0 l/m 1,3 km/h (1 Bft) W-SW 247 16 min 15,1 C 28,0 C 1,8 km/h (1 Bft)
21.06.2016 18:52 23,9 C 23,1 C 22,4 C 28,0 C 28,0 C 4,1 C 58 % 67 % 100 % 1019,8 hPa 0,0 l/m 1,3 km/h (1 Bft) W-SW 247 1 min 15,1 C 28,0 C 1,8 km/h (1 Bft)
21.06.2016 18:53 23,9 C 23,1 C 22,4 C 28,0 C 28,0 C 4,1 C 58 % 67 % 100 % 1019,8 hPa 0,0 l/m 1,3 km/h (1 Bft) W-SW 247 1 min 15,1 C 28,0 C 1,8 km/h (1 Bft)
21.06.2016 18:54 23,9 C 23,1 C 22,4 C 28,0 C 28,0 C 4,1 C 58 % 67 % 100 % 1019,8 hPa 0,0 l/m 1,3 km/h (1 Bft) W-SW 247 1 min 15,1 C 28,0 C 1,8 km/h (1 Bft)
21.06.2016 18:55 23,7 C 23,1 C 22,2 C 26,6 C 26,6 C 2,9 C 58 % 67 % 76 % 1019,8 hPa 0,0 l/m 1,1 km/h (1 Bft) S 180 0 min 14,9 C 26,6 C 5,8 km/h (2 Bft)
21.06.2016 18:58 23,7 C 23,1 C 22,2 C 26,6 C 26,6 C 2,9 C 58 % 67 % 76 % 1019,8 hPa 0,0 l/m 1,1 km/h (1 Bft) S 180 0 min 14,9 C 26,6 C 5,8 km/h (2 Bft)
21.06.2016 19:05 23,3 C 23,1 C 21,8 C 24,6 C 24,6 C 1,3 C 59 % 68 % 34 % 1019,8 hPa 0,0 l/m 1,1 km/h (1 Bft) S-SW 202 0 min 14,8 C 24,6 C 1,8 km/h (1 Bft)
21.06.2016 19:10 23,1 C 23,1 C 21,7 C 24,1 C 24,1 C 1,0 C 60 % 69 % 26 % 1019,8 hPa 0,0 l/m 1,1 km/h (1 Bft) O-SO 112 0 min 14,9 C 24,1 C 3,4 km/h (1 Bft)
21.06.2016 19:15 23,1 C 23,1 C 21,6 C 24,0 C 24,0 C 0,9 C 60 % 69 % 24 % 1019,8 hPa 0,0 l/m 0,6 km/h (0 Bft) S 180 0 min 14,9 C 24,0 C 0,0 km/h (0 Bft)
21.06.2016 19:25 23,1 C 23,1 C 21,5 C 24,1 C 24,1 C 1,0 C 62 % 71 % 26 % 1019,8 hPa 0,0 l/m 0,2 km/h (0 Bft) O 90 0 min 15,4 C 24,1 C 0,0 km/h (0 Bft)
21.06.2016 19:30 22,9 C 23,2 C 21,3 C 23,8 C 23,8 C 0,9 C 63 % 72 % 24 % 1019,8 hPa 0,0 l/m 0,0 km/h (0 Bft) N-NW 337 0 min 15,5 C 23,8 C 0,0 km/h (0 Bft)
21.06.2016 19:35 22,9 C 23,2 C 21,2 C 23,6 C 23,6 C 0,7 C 63 % 72 % 18 % 1019,8 hPa 0,0 l/m 0,0 km/h (0 Bft) NO 45 0 min 15,5 C 23,6 C 0,0 km/h (0 Bft)
21.06.2016 19:40 22,7 C 23,2 C 21,1 C 23,3 C 23,3 C 0,6 C 64 % 73 % 16 % 1019,8 hPa 0,0 l/m 0,0 km/h (0 Bft) N-NO 22 0 min 15,5 C 23,3 C 0,0 km/h (0 Bft)
21.06.2016 19:45 22,6 C 23,2 C 21,0 C 23,1 C 23,1 C 0,5 C 64 % 74 % 13 % 1019,8 hPa 0,0 l/m 0,0 km/h (0 Bft) O 90 0 min 15,4 C 23,1 C 0,0 km/h (0 Bft)
21.06.2016 19:50 22,4 C 23,2 C 20,8 C 22,9 C 22,9 C 0,5 C 65 % 74 % 13 % 1019,8 hPa 0,0 l/m 0,0 km/h (0 Bft) N-NO 22 0 min 15,5 C 22,9 C 0,0 km/h (0 Bft)
21.06.2016 19:55 22,2 C 23,2 C 20,9 C 22,8 C 22,8 C 0,6 C 65 % 75 % 16 % 1019,8 hPa 0,0 l/m 0,0 km/h (0 Bft) O-NO 67 0 min 15,3 C 22,8 C 0,0 km/h (0 Bft)
21.06.2016 20:00 22,0 C 23,2 C 20,7 C 22,9 C 22,9 C 0,9 C 65 % 74 % 24 % 1019,8 hPa 0,0 l/m 0,0 km/h (0 Bft) O-NO 67 0 min 15,1 C 22,9 C 0,0 km/h (0 Bft)
21.06.2016 20:05 22,0 C 23,2 C 20,7 C 22,9 C 22,9 C 0,9 C 66 % 74 % 24 % 1019,9 hPa 0,0 l/m 0,0 km/h (0 Bft) O-NO 67 0 min 15,3 C 22,9 C 0,0 km/h (0 Bft)
21.06.2016 20:10 21,9 C 23,2 C 20,5 C 22,5 C 22,5 C 0,6 C 67 % 75 % 16 % 1019,9 hPa 0,0 l/m 0,0 km/h (0 Bft) O-NO 67 0 min 15,5 C 22,5 C 0,0 km/h (0 Bft)
21.06.2016 20:15 21,7 C 23,2 C 20,5 C 22,3 C 22,3 C 0,6 C 67 % 76 % 16 % 1019,9 hPa 0,0 l/m 0,0 km/h (0 Bft) O-NO 67 0 min 15,3 C 22,3 C 0,0 km/h (0 Bft)
21.06.2016 20:25 21,5 C 23,2 C 20,3 C 21,6 C 21,6 C 0,1 C 68 % 77 % 3 % 1019,9 hPa 0,0 l/m 0,0 km/h (0 Bft) O-NO 67 0 min 15,3 C 21,6 C 0,0 km/h (0 Bft)
21.06.2016 20:30 21,3 C 23,2 C 20,0 C 21,3 C 21,2 C 0,0 C 68 % 76 % 0 % 1019,9 hPa 0,0 l/m 0,0 km/h (0 Bft) O-NO 67 0 min 15,1 C 21,2 C 0,0 km/h (0 Bft)
21.06.2016 20:35 21,2 C 23,2 C 20,0 C 21,1 C 21,0 C 0,0 C 68 % 77 % 0 % 1019,9 hPa 0,0 l/m 0,0 km/h (0 Bft) O-NO 67 0 min 15,1 C 21,0 C 0,0 km/h (0 Bft)
21.06.2016 20:40 21,0 C 23,2 C 19,8 C 20,9 C 20,6 C 0,0 C 69 % 78 % 0 % 1019,9 hPa 0,0 l/m 0,0 km/h (0 Bft) O-NO 67 0 min 15,1 C 20,6 C 0,0 km/h (0 Bft)
21.06.2016 20:45 20,9 C 23,2 C 19,7 C 20,7 C 20,4 C 0,0 C 70 % 79 % 0 % 1019,9 hPa 0,0 l/m 0,0 km/h (0 Bft) O-NO 67 0 min 15,2 C 20,4 C 0,0 km/h (0 Bft)
21.06.2016 20:50 20,8 C 23,3 C 19,5 C 20,6 C 20,1 C 0,0 C 71 % 78 % 0 % 1019,9 hPa 0,0 l/m 0,0 km/h (0 Bft) NO 45 0 min 15,3 C 20,1 C 0,0 km/h (0 Bft)
21.06.2016 20:55 20,7 C 23,3 C 19,5 C 20,5 C 20,0 C 0,0 C 71 % 79 % 0 % 1019,9 hPa 0,0 l/m 0,0 km/h (0 Bft) NO 45 0 min 15,2 C 20,0 C 0,0 km/h (0 Bft)
21.06.2016 21:00 20,7 C 23,3 C 19,5 C 20,4 C 19,9 C 0,0 C 71 % 79 % 0 % 1019,9 hPa 0,0 l/m 0,0 km/h (0 Bft) NO 45 0 min 15,2 C 19,9 C 0,0 km/h (0 Bft)
21.06.2016 21:05 20,5 C 23,3 C 19,5 C 20,3 C 19,9 C 0,0 C 71 % 80 % 0 % 1020,1 hPa 0,0 l/m 0,0 km/h (0 Bft) NO 45 0 min 15,1 C 19,9 C 0,0 km/h (0 Bft)
21.06.2016 21:10 20,5 C 23,3 C 19,3 C 20,3 C 19,8 C 0,0 C 72 % 80 % 0 % 1020,1 hPa 0,0 l/m 0,0 km/h (0 Bft) NO 45 0 min 15,3 C 19,8 C 0,0 km/h (0 Bft)
21.06.2016 21:15 20,3 C 23,3 C 19,3 C 20,1 C 19,6 C 0,0 C 72 % 81 % 0 % 1020,1 hPa 0,0 l/m 0,0 km/h (0 Bft) NO 45 0 min 15,1 C 19,6 C 0,0 km/h (0 Bft)
21.06.2016 21:20 20,3 C 23,4 C 19,2 C 20,0 C 19,5 C 0,0 C 73 % 80 % 0 % 1020,1 hPa 0,0 l/m 0,0 km/h (0 Bft) NO 45 0 min 15,3 C 19,5 C 0,0 km/h (0 Bft)
21.06.2016 21:25 20,1 C 23,4 C 19,1 C 19,8 C 19,2 C 0,0 C 74 % 81 % 0 % 1020,0 hPa 0,0 l/m 0,0 km/h (0 Bft) NO 45 0 min 15,3 C 19,2 C 0,0 km/h (0 Bft)
21.06.2016 21:30 19,9 C 23,4 C 18,8 C 19,6 C 18,9 C 0,0 C 73 % 81 % 0 % 1020,0 hPa 0,0 l/m 0,0 km/h (0 Bft) NO 45 0 min 14,9 C 18,9 C 0,0 km/h (0 Bft)
21.06.2016 21:35 19,9 C 23,4 C 18,8 C 19,5 C 18,7 C 0,0 C 74 % 81 % 0 % 1020,0 hPa 0,0 l/m 0,0 km/h (0 Bft) NO 45 0 min 15,1 C 18,7 C 0,0 km/h (0 Bft)
21.06.2016 21:50 19,3 C 23,4 C 18,3 C 18,9 C 18,0 C 0,0 C 76 % 82 % 0 % 1020,2 hPa 0,0 l/m 0,0 km/h (0 Bft) N 0 0 min 15,0 C 18,0 C 0,0 km/h (0 Bft)
21.06.2016 22:10 18,3 C 23,4 C 17,9 C 18,0 C 17,3 C 0,0 C 77 % 83 % 0 % 1020,3 hPa 0,0 l/m 0,0 km/h (0 Bft) N-NO 22 0 min 14,2 C 17,3 C 0,0 km/h (0 Bft)
21.06.2016 22:31 17,6 C 23,4 C 17,5 C 17,3 C 16,8 C 0,0 C 78 % 84 % 0 % 1020,4 hPa 0,0 l/m 0,0 km/h (0 Bft) N-NO 22 0 min 13,7 C 16,8 C 0,0 km/h (0 Bft)
21.06.2016 22:32 17,6 C 23,4 C 17,5 C 17,3 C 16,8 C 0,0 C 78 % 84 % 0 % 1020,4 hPa 0,0 l/m 0,0 km/h (0 Bft) N-NO 22 0 min 13,7 C 16,8 C 0,0 km/h (0 Bft)
21.06.2016 22:33 17,6 C 23,4 C 17,5 C 17,3 C 16,8 C 0,0 C 78 % 84 % 0 % 1020,4 hPa 0,0 l/m 0,0 km/h (0 Bft) N-NO 22 0 min 13,7 C 16,8 C 0,0 km/h (0 Bft)
21.06.2016 22:34 17,6 C 23,4 C 17,5 C 17,3 C 16,8 C 0,0 C 78 % 84 % 0 % 1020,4 hPa 0,0 l/m 0,0 km/h (0 Bft) N-NO 22 0 min 13,7 C 16,8 C 0,0 km/h (0 Bft)
21.06.2016 22:35 17,5 C 23,4 C 17,5 C 17,2 C 16,6 C 0,0 C 78 % 84 % 0 % 1020,4 hPa 0,0 l/m 0,0 km/h (0 Bft) N-NO 22 0 min 13,6 C 16,6 C 0,0 km/h (0 Bft)
21.06.2016 22:39 17,5 C 23,4 C 17,5 C 17,2 C 16,6 C 0,0 C 78 % 84 % 0 % 1020,4 hPa 0,0 l/m 0,0 km/h (0 Bft) N-NO 22 0 min 13,6 C 16,6 C 0,0 km/h (0 Bft)
21.06.2016 22:45 17,2 C 23,5 C 17,3 C 17,0 C 16,5 C 0,0 C 78 % 84 % 0 % 1020,4 hPa 0,0 l/m 0,0 km/h (0 Bft) O-NO 67 0 min 13,3 C 16,5 C 0,0 km/h (0 Bft)
21.06.2016 22:50 16,9 C 23,5 C 17,2 C 16,7 C 16,4 C 0,0 C 79 % 85 % 0 % 1020,4 hPa 0,0 l/m 0,0 km/h (0 Bft) O-NO 67 0 min 13,2 C 16,4 C 0,0 km/h (0 Bft)
21.06.2016 22:55 16,9 C 23,5 C 17,1 C 16,7 C 16,3 C 0,0 C 79 % 85 % 0 % 1020,4 hPa 0,0 l/m 0,0 km/h (0 Bft) O-NO 67 0 min 13,2 C 16,3 C 0,0 km/h (0 Bft)
21.06.2016 23:00 16,7 C 23,5 C 17,1 C 16,6 C 16,3 C 0,0 C 80 % 86 % 0 % 1020,4 hPa 0,0 l/m 0,0 km/h (0 Bft) O-NO 67 0 min 13,2 C 16,3 C 0,0 km/h (0 Bft)
21.06.2016 23:10 16,4 C 23,6 C 17,0 C 16,3 C 16,0 C 0,0 C 80 % 86 % 0 % 1020,7 hPa 0,0 l/m 0,0 km/h (0 Bft) O-NO 67 0 min 12,9 C 16,0 C 0,0 km/h (0 Bft)
21.06.2016 23:15 16,2 C 23,7 C 16,9 C 16,1 C 15,9 C 0,0 C 80 % 86 % 0 % 1020,7 hPa 0,0 l/m 0,0 km/h (0 Bft) O-NO 67 0 min 12,7 C 15,9 C 0,0 km/h (0 Bft)
21.06.2016 23:20 16,0 C 23,7 C 16,8 C 15,9 C 15,8 C 0,0 C 81 % 86 % 0 % 1020,7 hPa 0,0 l/m 0,0 km/h (0 Bft) O-NO 67 0 min 12,7 C 15,8 C 0,0 km/h (0 Bft)
21.06.2016 23:25 15,9 C 23,7 C 16,7 C 15,9 C 15,8 C 0,0 C 81 % 87 % 0 % 1020,8 hPa 0,0 l/m 0,0 km/h (0 Bft) O-NO 67 0 min 12,6 C 15,8 C 0,0 km/h (0 Bft)
21.06.2016 23:30 15,7 C 23,7 C 16,6 C 15,7 C 15,7 C 0,0 C 81 % 87 % 0 % 1020,8 hPa 0,0 l/m 0,0 km/h (0 Bft) O-NO 67 0 min 12,4 C 15,7 C 0,0 km/h (0 Bft)
21.06.2016 23:35 15,6 C 23,7 C 16,5 C 15,6 C 15,6 C 0,0 C 81 % 87 % 0 % 1020,8 hPa 0,0 l/m 0,0 km/h (0 Bft) O-NO 67 0 min 12,3 C 15,6 C 0,0 km/h (0 Bft)
21.06.2016 23:40 15,5 C 23,7 C 16,4 C 15,6 C 15,6 C 0,1 C 82 % 87 % 0 % 1020,8 hPa 0,0 l/m 0,0 km/h (0 Bft) O-NO 67 0 min 12,4 C 15,6 C 0,0 km/h (0 Bft)
21.06.2016 23:45 15,5 C 23,7 C 16,5 C 15,6 C 15,6 C 0,1 C 82 % 87 % 0 % 1020,9 hPa 0,0 l/m 0,0 km/h (0 Bft) O-NO 67 0 min 12,4 C 15,6 C 0,0 km/h (0 Bft)
21.06.2016 23:50 15,3 C 23,7 C 16,3 C 15,4 C 15,4 C 0,1 C 82 % 87 % 0 % 1020,9 hPa 0,0 l/m 0,0 km/h (0 Bft) O-NO 67 0 min 12,2 C 15,4 C 0,0 km/h (0 Bft)
21.06.2016 23:55 15,2 C 23,7 C 16,3 C 15,3 C 15,3 C 0,1 C 82 % 88 % 0 % 1020,9 hPa 0,0 l/m 0,0 km/h (0 Bft) O-NO 67 0 min 12,1 C 15,3 C 0,0 km/h (0 Bft)
_ Min-Zeit 03:25 10:05 03:10 01:02 01:02 00:10 16:15 17:35 00:00 04:45 - 00:00 - - - 03:30 01:02 00:00
Minimum _ 13,6 C 22,5 C 14,9 C 14,7 C 14,7 C 0,0 C 54 % 57 % 0 % 1015,6 hPa - 0,0 km/h (0 Bft) - - - 10,7 C 14,7 C 0,0 km/h (0 Bft)
_ Max-Zeit 16:00 23:15 16:35 17:40 17:40 17:40 02:15 02:45 12:35 23:45 00:00 10:10 - - 12:56 13:15 17:40 13:35
Maximum _ 25,9 C 23,7 C 26,2 C 33,6 C 33,6 C 8,9 C 83 % 88 % 100 % 1020,9 hPa 0,0 l/m 3,5 km/h
W-SW (1 Bft)
- - 21 min 16,3 C 33,6 C 10,6 km/h
S-SO (2 Bft)
Durchschnitt _ 18,9 C 22,9 C 18,6 C 20,9 C 20,8 C 2,0 C 72 % 79 % 40 % 1018,2 hPa #0,0 l/m 0,9 km/h (0 Bft) S - #6:34 h 13,5 C 20,8 C 1,6 km/h (1 Bft)
2016 www.wetterstation-wechselburg.de